Kelly, NC (28448)

4:47 PM EDT on July 25, 2014 (GMT -0400)
Elizabethtown (KEYF) Elev 131 ft | 34.60 °N, 78.58 °W | Change Station

Current weather conditions updated 12 minutes ago

Overcast
Overcast
81 °F
Feels Like 85 °F
N
4
Wind Variable Wind from East

Tomorrow is forecast to be Warmer than today.

Today
High -- | Low -- °F
--% Chance of Precip.
Yesterday
High -- | Low -- °F
Precip. -- in
6:18 AM 8:20 PM
Waning Crescent, 1% visible
Pressure 30.01 in
Visibility 10.0 miles
Clouds Overcast 3300 ft
Heat Index 85 °F
Dew Point 71 °F
Humidity 71%
Rainfall 0.00 in
Snow Depth Not available.
UV 2 out of 12
Pollen 3.00 out of 12
Air Quality Not available.
Flu Activity Not available.
METAR KEYF 252035Z AUTO 10003KT 10SM OVC033 27/22 A3001 RMK AO2 T02730217

More Conditions Fewer Conditions

Pressure 30.01 in
Visibility 10.0 miles
Clouds Overcast 3300 ft
Heat Index 85 °F
Dew Point 71 °F
Humidity 71%
Rainfall 0.00 in
Snow Depth Not available.
UV 2 out of 12
Pollen 3.00 out of 12
Air Quality Not available.
Flu Activity Not available.
METAR KEYF 252035Z AUTO 10003KT 10SM OVC033 27/22 A3001 RMK AO2 T02730217

More Conditions Fewer Conditions

10-Day Weather Forecast

Almanac

Astronomy

Jul. 25, 2014 Rise Set
Actual Time 6:18 AM EDT 8:20 PM EDT
Civil Twilight 5:50 AM EDT 8:48 PM EDT
Nautical Twilight 5:16 AM EDT 9:22 PM EDT
Astronomical Twilight 4:39 AM EDT 9:59 PM EDT
Moon 5:14 AM EDT 7:18 PM EDT
Length of Visible Light 14h 57m
Length of Day
14h 01m
Tomorrow will be 1m 26s shorter.
Waning Crescent, 1% of the Moon is Illuminated
Today
Waning Crescent
Jul 26
New
Aug 3
First Quarter
Aug 10
Full
Aug 17
Last Quarter

Today's Extremes

State Highs State Lows

Community

WunderPhotos

Upload Photos

1,737,396 photos uploaded!

Nearby

Snow Depth

Station Depth Elevation
No new snow has been reported.

Earthquake Activity

City Distance Mag. Time & Date
No recent earthquake activity has been reported nearby.
Minimum magnitude displayed is 2.5.

Coastal Water Temperatures

Place Temperature
No Stations Reporting

Nearby Weather Stations

Station Location Temp. Heat Index Dew Point Humidity Wind Precip. Elev Updated Type
KD4JRX HORSE BRANCH RD, WATHA, NC 83.1 °F 91 °F 76 °F 78% ESE  at  2.2 mph 0.00 in / hr 58 ft 4:47 PM EDT Rapid Fire
421 North, Wilmington, NC 79.3 °F 82 °F 70 °F 74% ESE  at  3.0 mph 0.00 in / hr 7 ft 4:45 PM EDT Normal
St. Helena, Burgaw, NC 79.1 °F 83 °F 74 °F 83% East  at  0.0 mph 0.00 in / hr 49 ft 4:30 PM EDT Normal
Edgewood Community, Burgaw, NC 81.0 °F 85 °F 72 °F 75% SSE  at  4.1 mph 0.00 in / hr 49 ft 4:47 PM EDT Rapid Fire

Show More Stations Show Fewer Stations